Time;durP1;ratioP1;P1;durP2;ratioP2;P2;SDS_P1;SDS_P2;PMS_P1;PMS_P2;Temp;Humidity;BMP_temperature;BMP_pressure;BME280_temperature;BME280_humidity;BME280_pressure;Samples;Min_cycle;Max_cycle;Signal;HPM_P1;HPM_P2
2023/08/24 00:00:47;;;;;;;10.00;9.00;;;;;;;24.11;44.65;94014.22;5076982;28;20039;-79
2023/08/24 00:03:13;;;;;;;11.10;9.63;;;;;;;24.09;45.55;94029.38;5077964;28;20027;-80
2023/08/24 00:05:39;;;;;;;14.38;10.43;;;;;;;24.07;44.88;94031.69;5077097;28;20058;-80
2023/08/24 00:08:06;;;;;;;11.57;9.70;;;;;;;24.05;44.98;94032.09;5076131;28;20851;-80
2023/08/24 00:10:31;;;;;;;11.60;9.43;;;;;;;24.06;44.53;94039.06;5076492;28;20044;-80
2023/08/24 00:12:57;;;;;;;11.63;10.43;;;;;;;24.09;44.56;94029.38;5075844;28;20031;-80
2023/08/24 00:15:22;;;;;;;12.55;9.35;;;;;;;24.00;44.93;94022.38;5075048;28;20038;-80
2023/08/24 00:17:48;;;;;;;13.07;9.80;;;;;;;23.89;45.27;94010.81;5073705;28;20028;-80
2023/08/24 00:20:13;;;;;;;10.05;9.05;;;;;;;23.99;45.16;94020.84;5075215;28;20032;-80
2023/08/24 00:22:39;;;;;;;10.10;9.20;;;;;;;23.86;45.29;94017.00;5075463;28;20511;-78
2023/08/24 00:25:06;;;;;;;14.38;9.23;;;;;;;23.92;44.75;94020.09;5077549;28;20113;-77
2023/08/24 00:27:32;;;;;;;11.00;9.90;;;;;;;23.85;44.66;94018.19;5075281;28;20392;-80
2023/08/24 00:29:57;;;;;;;10.85;9.25;;;;;;;23.79;45.03;94013.53;5076087;28;20016;-77
2023/08/24 00:32:23;;;;;;;12.30;9.13;;;;;;;23.80;45.57;94023.25;5073750;28;20020;-81
2023/08/24 00:34:48;;;;;;;9.48;8.63;;;;;;;23.74;45.76;94022.88;5077405;28;20084;-80
2023/08/24 00:37:14;;;;;;;10.68;9.45;;;;;;;23.69;45.36;94012.41;5073500;28;20043;-80
2023/08/24 00:39:39;;;;;;;12.07;8.95;;;;;;;23.63;45.34;94008.53;5076944;28;20027;-80
2023/08/24 00:42:05;;;;;;;10.25;9.15;;;;;;;23.60;45.54;94006.59;5074529;28;20030;-77
2023/08/24 00:44:31;;;;;;;10.20;9.18;;;;;;;23.57;45.51;94012.81;5073054;28;20027;-80
2023/08/24 00:46:58;;;;;;;10.35;9.25;;;;;;;23.58;45.87;94014.34;5076040;28;20085;-80
2023/08/24 00:49:24;;;;;;;10.48;9.00;;;;;;;23.67;46.08;94014.72;5074790;28;21330;-78
2023/08/24 00:51:50;;;;;;;12.55;9.15;;;;;;;23.55;46.40;94020.56;5077703;28;20546;-80
2023/08/24 00:54:17;;;;;;;12.38;8.82;;;;;;;23.40;46.15;94016.28;5077116;28;20484;-81
2023/08/24 00:56:43;;;;;;;10.43;9.32;;;;;;;23.34;46.18;94018.63;5074303;28;20036;-80
2023/08/24 00:59:08;;;;;;;11.25;9.52;;;;;;;23.40;46.46;94044.22;5074892;28;20412;-80
2023/08/24 01:01:33;;;;;;;9.98;8.82;;;;;;;23.38;46.14;94030.25;5074195;28;20179;-80
2023/08/24 01:03:59;;;;;;;10.38;9.10;;;;;;;23.40;45.78;94032.56;5076686;28;20405;-80
2023/08/24 01:06:25;;;;;;;13.32;10.63;;;;;;;23.30;46.07;94017.06;5076952;28;20400;-80
2023/08/24 01:08:51;;;;;;;9.88;8.88;;;;;;;23.26;46.29;94021.72;5075315;28;20135;-80
2023/08/24 01:11:16;;;;;;;10.45;9.45;;;;;;;23.26;46.56;94024.44;5074676;28;20047;-80
2023/08/24 01:14:05;;;;;;;12.10;9.50;;;;;;;23.25;46.62;94020.97;5075457;28;20072;-80
2023/08/24 01:16:33;;;;;;;10.02;9.13;;;;;;;22.98;46.48;93996.13;5077441;28;20399;-80
2023/08/24 01:18:59;;;;;;;10.40;9.40;;;;;;;23.07;46.85;94015.50;5074974;28;20037;-80
2023/08/24 01:21:26;;;;;;;12.15;8.77;;;;;;;23.03;46.89;94014.75;5075612;28;20112;-80
2023/08/24 01:24:03;;;;;;;11.45;10.15;;;;;;;23.04;46.74;94023.66;5074224;28;20039;-80
2023/08/24 01:26:29;;;;;;;9.70;8.68;;;;;;;22.99;46.95;94016.69;5073182;28;20481;-80
2023/08/24 01:28:55;;;;;;;10.02;9.02;;;;;;;22.89;46.61;94006.59;5071838;28;20507;-80
2023/08/24 01:31:20;;;;;;;10.43;9.27;;;;;;;22.95;46.96;94024.03;5068599;28;20404;-80
2023/08/24 01:33:46;;;;;;;11.43;9.18;;;;;;;22.90;46.98;94021.72;5075434;28;20156;-79
2023/08/24 01:36:14;;;;;;;10.10;9.07;;;;;;;22.91;46.60;94012.44;5091703;27;20474;-80
2023/08/24 01:38:41;;;;;;;9.30;8.35;;;;;;;22.93;46.90;94026.34;5072046;28;20038;-80
2023/08/24 01:41:13;;;;;;;10.50;9.48;;;;;;;22.85;46.67;94024.78;5073051;28;20039;-80
2023/08/24 01:43:41;;;;;;;11.00;9.30;;;;;;;22.84;46.84;94025.94;5077092;28;20492;-80
2023/08/24 01:46:07;;;;;;;10.55;9.55;;;;;;;22.87;46.90;94032.56;5071222;28;20254;-79
2023/08/24 01:48:34;;;;;;;13.02;10.43;;;;;;;22.82;47.39;94035.63;5076403;28;20036;-80
2023/08/24 01:51:01;;;;;;;12.40;11.10;;;;;;;22.69;47.65;94027.84;5074589;28;20027;-80
2023/08/24 01:53:29;;;;;;;10.98;9.90;;;;;;;22.70;47.15;94028.63;5064408;28;20482;-80
2023/08/24 01:55:55;;;;;;;14.05;10.57;;;;;;;22.69;47.40;94018.94;5077462;28;20039;-80
2023/08/24 01:58:20;;;;;;;11.85;10.45;;;;;;;22.65;47.48;94020.88;5072268;28;20590;-80
2023/08/24 02:00:46;;;;;;;11.18;10.02;;;;;;;22.68;47.56;94025.53;5075711;28;20031;-80
2023/08/24 02:03:11;;;;;;;11.60;10.40;;;;;;;22.65;47.95;94026.28;5072742;28;20622;-80
2023/08/24 02:05:37;;;;;;;12.40;10.38;;;;;;;22.56;47.91;94006.91;5076281;28;20468;-80
2023/08/24 02:08:02;;;;;;;12.65;10.68;;;;;;;22.65;48.04;94031.72;5074239;28;20036;-80
2023/08/24 02:10:28;;;;;;;13.68;11.13;;;;;;;22.70;48.17;94028.63;5074472;28;20036;-80
2023/08/24 02:12:53;;;;;;;17.35;10.98;;;;;;;22.64;48.16;94019.31;5072524;28;20032;-80
2023/08/24 02:15:19;;;;;;;11.80;10.60;;;;;;;22.61;48.51;94030.94;5075701;28;20104;-80
2023/08/24 02:17:44;;;;;;;14.50;12.45;;;;;;;22.56;48.81;94028.59;5075557;28;20082;-79
2023/08/24 02:20:11;;;;;;;13.93;11.18;;;;;;;22.53;49.25;94026.66;5073754;28;20033;-79
2023/08/24 02:22:37;;;;;;;15.10;13.50;;;;;;;22.53;49.51;94035.56;5071425;28;20043;-80
2023/08/24 02:25:04;;;;;;;16.35;11.60;;;;;;;22.53;49.64;94045.63;5072802;28;20036;-80
2023/08/24 02:27:30;;;;;;;14.98;11.30;;;;;;;22.41;49.51;94035.91;5064475;28;20084;-80
2023/08/24 02:29:56;;;;;;;15.40;12.18;;;;;;;22.46;49.75;94040.19;5075868;28;20059;-80
2023/08/24 02:32:21;;;;;;;13.98;11.65;;;;;;;22.39;49.58;94032.78;5074061;28;20174;-80
2023/08/24 02:34:47;;;;;;;15.65;11.95;;;;;;;22.38;49.63;94033.19;5074804;28;20078;-80
2023/08/24 02:37:12;;;;;;;12.43;11.20;;;;;;;22.40;49.88;94033.56;5078016;28;20082;-80
2023/08/24 02:39:37;;;;;;;15.20;10.95;;;;;;;22.41;50.08;94043.25;5079202;28;20516;-79
2023/08/24 02:42:03;;;;;;;13.77;11.68;;;;;;;22.36;50.01;94044.41;5077564;28;20045;-80
2023/08/24 02:44:28;;;;;;;14.10;11.40;;;;;;;22.19;49.72;94020.72;5076377;28;20047;-80
2023/08/24 02:46:54;;;;;;;13.13;11.05;;;;;;;22.32;49.71;94023.88;5077930;28;20032;-80
2023/08/24 02:49:19;;;;;;;11.25;10.10;;;;;;;22.24;49.67;94013.00;5077161;28;20067;-79
2023/08/24 02:51:44;;;;;;;16.45;11.70;;;;;;;22.25;49.48;94003.72;5077904;28;20040;-79
2023/08/24 02:54:10;;;;;;;12.43;10.40;;;;;;;22.24;49.02;93993.28;5077392;28;20476;-80
2023/08/24 02:56:35;;;;;;;11.70;9.85;;;;;;;22.33;48.82;94009.19;5076502;28;20464;-80
2023/08/24 02:59:01;;;;;;;10.30;9.00;;;;;;;22.29;48.16;94001.81;5067854;28;20648;-80
2023/08/24 03:01:26;;;;;;;11.40;9.98;;;;;;;22.22;48.17;93982.84;5077926;28;20032;-79
2023/08/24 03:03:52;;;;;;;11.43;9.70;;;;;;;22.26;48.12;93985.53;5080185;28;20037;-80
2023/08/24 03:06:17;;;;;;;11.70;10.50;;;;;;;22.34;48.08;93997.19;5076283;28;20044;-79
2023/08/24 03:08:44;;;;;;;12.32;10.77;;;;;;;22.36;48.54;94003.00;5079243;28;20502;-80
2023/08/24 03:11:09;;;;;;;14.07;11.55;;;;;;;22.37;48.48;94005.31;5077476;28;20035;-80
2023/08/24 03:13:40;;;;;;;11.93;10.75;;;;;;;22.36;49.00;94019.25;5080063;28;20025;-80
2023/08/24 03:16:06;;;;;;;12.07;10.80;;;;;;;22.25;48.71;94014.56;5083835;28;20054;-79
2023/08/24 03:18:31;;;;;;;14.30;11.35;;;;;;;22.25;48.81;94019.97;5077502;28;20059;-80
2023/08/24 03:20:57;;;;;;;16.40;12.18;;;;;;;22.29;48.89;94042.44;5079622;28;20165;-80
2023/08/24 03:23:22;;;;;;;13.85;12.00;;;;;;;22.27;48.97;94039.34;5076800;28;20036;-80
2023/08/24 03:25:48;;;;;;;15.05;12.70;;;;;;;22.29;49.18;94045.16;5079476;28;20028;-80
2023/08/24 03:28:13;;;;;;;14.20;11.77;;;;;;;22.18;49.11;94036.19;5077216;28;20088;-80
2023/08/24 03:30:44;;;;;;;16.98;13.65;;;;;;;22.21;49.78;94050.91;5080523;28;20043;-80
2023/08/24 03:33:10;;;;;;;18.73;13.45;;;;;;;22.17;49.80;94050.88;5077109;28;20028;-80
2023/08/24 03:35:35;;;;;;;16.80;12.93;;;;;;;22.12;50.02;94055.91;5079170;28;20058;-79
2023/08/24 03:38:01;;;;;;;14.63;13.02;;;;;;;22.11;50.63;94055.13;5078245;28;20067;-80
2023/08/24 03:40:26;;;;;;;14.10;12.00;;;;;;;21.92;50.76;94032.97;5077589;28;20143;-80
2023/08/24 03:42:53;;;;;;;16.27;12.88;;;;;;;22.02;50.77;94048.50;5076023;28;20105;-80
2023/08/24 03:45:19;;;;;;;15.65;12.10;;;;;;;21.95;50.98;94054.63;5076173;28;20047;-79
2023/08/24 03:47:44;;;;;;;15.10;12.38;;;;;;;21.96;50.88;94060.84;5075064;28;20031;-80
2023/08/24 03:50:10;;;;;;;15.15;12.32;;;;;;;21.98;50.87;94061.25;5080738;28;20404;-80
2023/08/24 03:52:36;;;;;;;16.13;12.80;;;;;;;21.88;51.00;94062.75;5075869;28;20100;-80
2023/08/24 03:55:01;;;;;;;14.48;12.98;;;;;;;21.78;51.21;94044.50;5077731;28;20032;-80
2023/08/24 03:57:27;;;;;;;15.23;13.73;;;;;;;21.87;51.59;94080.91;5078249;28;20127;-80
2023/08/24 03:59:53;;;;;;;30.10;22.20;;;;;;;21.79;51.36;94060.38;5077065;28;20432;-80
2023/08/24 04:02:18;;;;;;;37.20;27.13;;;;;;;21.92;51.29;94082.47;5079270;28;20797;-80
2023/08/24 04:04:44;;;;;;;34.63;24.25;;;;;;;21.93;51.32;94073.22;5077015;28;20039;-79
2023/08/24 04:07:09;;;;;;;30.40;22.58;;;;;;;21.91;51.58;94069.31;5080333;28;20058;-79
2023/08/24 04:09:34;;;;;;;29.95;22.05;;;;;;;21.95;51.57;94067.44;5077456;28;20591;-80
2023/08/24 04:12:00;;;;;;;34.33;23.40;;;;;;;21.90;51.56;94073.19;5076796;28;20031;-80
2023/08/24 04:14:25;;;;;;;27.50;22.65;;;;;;;21.79;51.78;94062.31;5075321;28;20507;-80
2023/08/24 04:16:52;;;;;;;23.10;19.23;;;;;;;21.71;51.92;94055.28;5077412;28;20538;-80
2023/08/24 04:19:17;;;;;;;22.25;16.90;;;;;;;21.72;51.92;94057.63;5076997;28;20032;-80
2023/08/24 04:21:42;;;;;;;23.25;15.15;;;;;;;21.76;51.67;94068.47;5075051;28;20133;-80
2023/08/24 04:24:08;;;;;;;19.05;14.40;;;;;;;21.79;51.73;94062.31;5078305;28;20035;-80
2023/08/24 04:26:33;;;;;;;19.05;14.85;;;;;;;21.79;51.64;94062.31;5076512;28;20931;-80
2023/08/24 04:28:59;;;;;;;15.48;13.85;;;;;;;21.84;51.58;94057.31;5077172;28;20047;-80
2023/08/24 04:31:24;;;;;;;16.85;11.95;;;;;;;21.86;51.11;94059.63;5076333;28;20464;-77
2023/08/24 04:33:50;;;;;;;15.20;12.15;;;;;;;21.93;50.53;94056.97;5076437;28;20035;-80
2023/08/24 04:36:15;;;;;;;14.40;12.23;;;;;;;21.90;51.80;94063.16;5074400;28;20041;-80
2023/08/24 04:38:40;;;;;;;16.08;13.43;;;;;;;21.85;52.20;94055.38;5078129;28;20467;-79
2023/08/24 04:41:08;;;;;;;18.80;14.70;;;;;;;21.88;52.50;94065.44;5075166;28;20036;-80
2023/08/24 04:43:35;;;;;;;18.70;14.70;;;;;;;21.85;51.88;94077.78;5076064;28;20040;-78
2023/08/24 04:46:00;;;;;;;17.67;15.23;;;;;;;21.79;51.74;94068.50;5073928;28;20174;-80
2023/08/24 04:48:26;;;;;;;32.40;15.73;;;;;;;21.85;51.98;94082.47;5075153;28;20028;-80
2023/08/24 04:50:56;;;;;;;17.50;13.55;;;;;;;21.87;52.21;94090.97;5077969;28;20024;-79
2023/08/24 04:53:21;;;;;;;25.42;15.70;;;;;;;21.91;52.21;94083.63;4968868;28;20180;-80
2023/08/24 04:55:47;;;;;;;22.70;15.75;;;;;;;21.92;52.24;94089.81;5050706;28;20028;-80
2023/08/24 04:58:13;;;;;;;21.17;16.75;;;;;;;21.83;52.41;94068.50;5073892;28;20062;-79
2023/08/24 05:00:39;;;;;;;23.52;16.10;;;;;;;21.86;52.92;94067.75;5078703;28;20062;-79
2023/08/24 05:03:05;;;;;;;17.77;14.65;;;;;;;21.83;53.19;94063.09;5073484;28;20764;-77
2023/08/24 05:05:32;;;;;;;20.48;16.00;;;;;;;21.90;53.76;94067.78;5076391;28;20012;-80
2023/08/24 05:07:59;;;;;;;19.60;14.50;;;;;;;21.91;53.92;94067.38;5067355;28;20139;-77
2023/08/24 05:10:25;;;;;;;18.48;14.25;;;;;;;21.88;53.82;94065.44;5076940;28;20048;-80
2023/08/24 05:12:50;;;;;;;15.65;14.07;;;;;;;21.85;53.88;94060.81;5069436;28;20063;-80
2023/08/24 05:15:16;;;;;;;15.02;12.68;;;;;;;21.92;54.02;94060.81;5073002;28;20036;-80
2023/08/24 05:17:41;;;;;;;14.93;13.38;;;;;;;21.91;53.87;94061.19;5072211;28;20047;-80
2023/08/24 05:20:10;;;;;;;16.20;14.52;;;;;;;21.97;54.14;94079.41;5073659;28;20606;-80
2023/08/24 05:22:35;;;;;;;22.70;15.23;;;;;;;22.10;53.89;94082.56;5073756;28;20306;-80
2023/08/24 05:25:01;;;;;;;21.42;15.05;;;;;;;22.05;53.33;94081.00;5073825;28;20682;-80
2023/08/24 05:27:26;;;;;;;31.95;17.42;;;;;;;22.14;52.95;94089.59;5072632;28;20143;-80
2023/08/24 05:29:51;;;;;;;27.27;17.60;;;;;;;22.15;53.09;94093.03;5067762;28;20267;-80
2023/08/24 05:32:17;;;;;;;32.65;18.35;;;;;;;22.15;53.34;94091.13;5070176;28;20499;-80
2023/08/24 05:34:42;;;;;;;34.30;20.00;;;;;;;22.23;53.41;94098.16;5073342;28;20047;-80
2023/08/24 05:37:07;;;;;;;34.42;20.15;;;;;;;22.24;53.36;94098.94;5073743;28;20530;-80
2023/08/24 05:39:33;;;;;;;29.02;22.55;;;;;;;22.19;52.32;94083.78;5075139;28;20037;-80
2023/08/24 05:41:58;;;;;;;32.60;23.73;;;;;;;22.37;52.42;94110.22;5074710;28;20424;-78
2023/08/24 05:44:24;;;;;;;35.28;22.85;;;;;;;22.32;53.34;94088.91;5073681;28;20016;-80
2023/08/24 05:46:49;;;;;;;35.88;23.17;;;;;;;22.25;52.79;94092.34;5075240;28;20105;-80
2023/08/24 05:49:14;;;;;;;29.00;22.38;;;;;;;22.29;52.71;94117.56;5071194;28;20468;-80
2023/08/24 05:51:40;;;;;;;37.33;24.50;;;;;;;22.43;52.54;94120.31;5050683;28;20036;-80
2023/08/24 05:54:06;;;;;;;31.80;22.70;;;;;;;22.41;51.99;94109.06;4996939;28;20453;-80
2023/08/24 05:56:31;;;;;;;31.40;24.30;;;;;;;22.45;52.43;94103.66;5074040;28;20089;-80
2023/08/24 05:58:58;;;;;;;32.63;24.33;;;;;;;22.46;52.60;94113.34;5073760;28;20032;-80
2023/08/24 06:01:23;;;;;;;35.22;23.80;;;;;;;22.51;52.48;94112.97;5073314;28;20031;-80
2023/08/24 06:03:49;;;;;;;32.72;24.20;;;;;;;22.54;52.32;94118.41;5074309;28;20495;-79
2023/08/24 06:06:15;;;;;;;39.45;24.85;;;;;;;22.56;52.40;94124.25;5074704;28;20150;-79
2023/08/24 06:08:41;;;;;;;31.00;24.77;;;;;;;22.63;52.36;94115.38;5066756;28;20430;-79
2023/08/24 06:11:06;;;;;;;33.67;25.58;;;;;;;22.70;52.33;94110.75;5072981;28;20162;-79
2023/08/24 06:13:32;;;;;;;34.30;24.38;;;;;;;22.73;52.04;94099.13;5075238;28;20310;-80
2023/08/24 06:15:57;;;;;;;28.70;21.83;;;;;;;22.91;52.10;94110.06;5072333;28;20579;-80
2023/08/24 06:18:22;;;;;;;31.88;22.65;;;;;;;23.10;50.97;94117.84;5071540;28;20042;-80
2023/08/24 06:20:51;;;;;;;43.20;24.05;;;;;;;23.08;51.14;94113.94;5076394;28;20066;-80
2023/08/24 06:23:17;;;;;;;33.25;23.60;;;;;;;23.21;51.77;94117.09;5073696;28;20052;-80
2023/08/24 06:25:43;;;;;;;28.40;20.05;;;;;;;23.12;50.58;94104.66;5074300;28;20042;-80
2023/08/24 06:28:09;;;;;;;30.33;19.38;;;;;;;23.24;49.77;94117.09;5072055;28;20036;-80
2023/08/24 06:30:42;;;;;;;24.38;18.08;;;;;;;23.42;49.99;94114.38;5077126;28;20450;-81
2023/08/24 06:33:10;;;;;;;22.98;17.02;;;;;;;23.44;49.93;94099.25;5073829;28;20024;-80
2023/08/24 06:35:36;;;;;;;20.00;15.82;;;;;;;23.59;48.97;94116.34;5072857;28;20116;-80
2023/08/24 06:38:03;;;;;;;18.92;15.13;;;;;;;23.66;48.28;94105.47;5075068;28;20069;-80
2023/08/24 06:40:29;;;;;;;19.30;15.70;;;;;;;23.73;49.17;94110.13;5072402;28;20032;-79
2023/08/24 06:42:55;;;;;;;24.05;16.67;;;;;;;23.83;48.67;94110.13;5071397;28;20109;-80
2023/08/24 06:45:20;;;;;;;21.90;16.08;;;;;;;23.92;48.77;94110.50;5074619;28;20095;-80
2023/08/24 06:47:46;;;;;;;22.48;15.35;;;;;;;24.05;48.33;94110.88;5070225;28;20511;-80
2023/08/24 06:50:11;;;;;;;30.75;16.80;;;;;;;24.12;48.06;94104.66;5075774;28;20555;-80
2023/08/24 06:52:37;;;;;;;19.42;14.25;;;;;;;24.11;46.47;94092.22;5073921;28;20035;-80
2023/08/24 06:55:05;;;;;;;16.92;13.75;;;;;;;24.20;46.00;94111.66;5072692;28;20040;-80
2023/08/24 06:57:31;;;;;;;21.65;14.45;;;;;;;24.15;46.93;94103.91;5071088;28;20032;-79
2023/08/24 06:59:56;;;;;;;24.05;16.23;;;;;;;24.26;46.55;94118.22;5072267;28;20368;-80
2023/08/24 07:02:22;;;;;;;23.02;14.80;;;;;;;24.24;46.86;94117.84;5068547;28;20048;-80
2023/08/24 07:04:48;;;;;;;19.88;14.07;;;;;;;24.20;47.16;94117.84;5065238;28;20450;-79
2023/08/24 07:07:13;;;;;;;19.13;14.88;;;;;;;24.32;46.96;94097.63;5065217;28;20151;-80
2023/08/24 07:09:38;;;;;;;23.00;14.73;;;;;;;24.44;46.36;94105.38;5062611;28;20406;-80
2023/08/24 07:12:06;;;;;;;21.13;14.10;;;;;;;24.53;46.69;94100.28;5068163;28;20106;-77
2023/08/24 07:14:33;;;;;;;18.40;14.27;;;;;;;24.55;46.20;94084.31;5067333;28;20565;-80
2023/08/24 07:16:58;;;;;;;22.00;14.43;;;;;;;24.71;46.26;94103.72;5063943;28;20051;-80
2023/08/24 07:19:24;;;;;;;18.80;13.25;;;;;;;24.65;46.40;94082.72;5066753;28;20028;-78
2023/08/24 07:21:49;;;;;;;20.02;13.40;;;;;;;24.59;46.42;94084.34;5066893;28;20033;-79
2023/08/24 07:24:15;;;;;;;16.65;13.75;;;;;;;24.76;46.79;94084.28;5066388;28;20119;-80
2023/08/24 07:26:45;;;;;;;18.45;13.95;;;;;;;24.89;46.68;94089.25;5070606;28;20038;-80
2023/08/24 07:29:11;;;;;;;17.38;13.55;;;;;;;24.96;46.04;94095.44;5065670;28;20113;-80
2023/08/24 07:31:36;;;;;;;25.08;14.57;;;;;;;24.92;46.20;94086.53;5068038;28;20040;-79
2023/08/24 07:34:05;;;;;;;22.15;14.50;;;;;;;24.99;45.79;94077.53;5069808;28;20162;-80
2023/08/24 07:36:30;;;;;;;26.85;13.48;;;;;;;25.13;45.45;94094.53;5071441;28;20456;-80
2023/08/24 07:38:56;;;;;;;16.55;13.60;;;;;;;25.17;45.51;94089.09;5068562;28;20024;-79
2023/08/24 07:41:21;;;;;;;27.50;15.18;;;;;;;25.14;46.73;94078.97;5067609;28;20020;-78
2023/08/24 07:43:47;;;;;;;15.98;14.30;;;;;;;25.24;45.63;94095.25;5071711;28;20096;-76
2023/08/24 07:46:12;;;;;;;16.73;15.00;;;;;;;25.26;46.02;94094.84;5069596;28;20032;-80
2023/08/24 07:48:38;;;;;;;20.58;15.02;;;;;;;25.29;46.03;94088.59;5066570;28;20790;-80
2023/08/24 07:51:03;;;;;;;24.98;14.80;;;;;;;25.26;44.84;94083.97;5070459;28;20028;-79
2023/08/24 07:53:29;;;;;;;22.90;14.88;;;;;;;25.31;44.21;94086.28;5069351;28;20019;-80
2023/08/24 07:55:57;;;;;;;23.92;15.45;;;;;;;25.35;43.68;94076.16;5067685;28;20807;-77
2023/08/24 07:58:24;;;;;;;27.45;16.23;;;;;;;25.27;43.82;94088.25;5069383;28;20032;-78
2023/08/24 08:00:51;;;;;;;21.92;14.35;;;;;;;25.32;45.06;94093.28;5070799;28;20142;-77
2023/08/24 08:03:20;;;;;;;24.98;15.98;;;;;;;25.45;45.07;94097.06;5070191;28;20353;-78
2023/08/24 08:05:46;;;;;;;25.55;15.02;;;;;;;25.42;45.21;94086.22;5068044;28;20974;-79
2023/08/24 08:08:13;;;;;;;22.27;15.52;;;;;;;25.47;44.08;94080.34;5067755;28;20051;-79
2023/08/24 08:10:39;;;;;;;18.45;15.00;;;;;;;25.59;44.72;94094.22;5067638;28;20304;-78
2023/08/24 08:13:04;;;;;;;21.15;14.32;;;;;;;25.44;45.27;94092.00;5065628;28;20039;-77
2023/08/24 08:15:30;;;;;;;20.83;13.80;;;;;;;25.66;43.96;94096.88;5069907;28;20034;-79
2023/08/24 08:17:55;;;;;;;16.75;13.55;;;;;;;25.60;44.11;94093.06;5077108;27;20353;-79
2023/08/24 08:20:20;;;;;;;20.50;14.40;;;;;;;25.66;43.96;94094.16;5067730;28;20329;-78
2023/08/24 08:22:46;;;;;;;20.83;13.70;;;;;;;25.65;44.27;94078.25;5065025;28;20630;-79
2023/08/24 08:25:17;;;;;;;18.13;14.95;;;;;;;25.86;44.44;94099.06;5064184;28;20044;-79
2023/08/24 08:27:43;;;;;;;20.45;14.70;;;;;;;26.02;43.62;94096.59;5067320;28;20637;-77
2023/08/24 08:30:09;;;;;;;21.13;14.07;;;;;;;26.00;43.15;94093.50;5071937;28;20154;-79
2023/08/24 08:32:34;;;;;;;21.13;14.20;;;;;;;25.96;42.04;94077.16;5062607;28;20020;-78
2023/08/24 08:35:00;;;;;;;16.48;13.48;;;;;;;26.12;42.53;94084.81;5068484;28;20484;-78
2023/08/24 08:37:26;;;;;;;23.45;13.50;;;;;;;26.13;43.42;94070.78;5064175;28;20349;-79
2023/08/24 08:39:51;;;;;;;15.93;13.73;;;;;;;26.23;42.38;94076.50;5067044;28;20038;-79
2023/08/24 08:42:17;;;;;;;22.05;13.02;;;;;;;26.22;41.27;94083.91;5067743;28;20872;-79
2023/08/24 08:44:45;;;;;;;16.73;14.38;;;;;;;26.32;41.61;94074.06;5067243;28;20031;-79
2023/08/24 08:47:11;;;;;;;16.95;13.45;;;;;;;26.30;41.40;94069.03;5067162;28;20031;-79
2023/08/24 08:49:43;;;;;;;17.17;14.07;;;;;;;26.38;41.30;94080.63;5066704;28;20965;-78
2023/08/24 08:52:09;;;;;;;16.08;13.52;;;;;;;26.40;41.17;94068.13;5066779;28;20916;-79
2023/08/24 08:54:35;;;;;;;20.23;13.45;;;;;;;26.58;40.49;94072.63;5067903;28;20087;-78
2023/08/24 08:57:01;;;;;;;19.13;13.75;;;;;;;26.51;40.43;94065.31;5061800;28;20027;-79
2023/08/24 08:59:30;;;;;;;15.25;13.65;;;;;;;26.52;40.60;94059.44;5078404;27;20476;-77
2023/08/24 09:02:01;;;;;;;17.75;13.60;;;;;;;26.61;41.22;94063.63;5066842;28;20040;-77
2023/08/24 09:04:29;;;;;;;15.55;13.98;;;;;;;26.41;40.34;94045.13;5066563;28;20750;-79
2023/08/24 09:06:56;;;;;;;17.85;13.85;;;;;;;26.48;40.54;94053.28;5066824;28;20032;-79
2023/08/24 09:09:22;;;;;;;17.95;14.90;;;;;;;26.46;40.62;94055.63;5066083;28;20495;-78
2023/08/24 09:11:48;;;;;;;16.67;13.13;;;;;;;26.54;40.77;94057.06;5075193;27;20028;-79
2023/08/24 09:14:14;;;;;;;17.52;13.30;;;;;;;26.68;40.41;94044.44;5060470;28;20036;-79
2023/08/24 09:16:42;;;;;;;15.85;12.68;;;;;;;26.91;40.70;94045.28;5068074;28;20449;-78
2023/08/24 09:19:11;;;;;;;19.48;13.40;;;;;;;26.94;39.82;94024.56;5067569;28;20042;-77
2023/08/24 09:21:41;;;;;;;18.02;14.18;;;;;;;26.94;39.71;94039.00;5064239;28;21106;-78
2023/08/24 09:24:07;;;;;;;16.50;13.55;;;;;;;26.97;40.06;94029.22;5068501;28;20024;-79
2023/08/24 09:26:42;;;;;;;15.75;13.95;;;;;;;27.09;40.13;94031.41;5066563;28;20055;-78
2023/08/24 09:29:13;;;;;;;16.40;13.02;;;;;;;27.02;39.43;94026.06;5066031;28;20030;-79
2023/08/24 09:31:39;;;;;;;16.55;13.38;;;;;;;27.10;39.53;94022.03;5065957;28;20036;-78
2023/08/24 09:34:05;;;;;;;17.27;13.15;;;;;;;27.24;39.69;94024.53;5068862;28;20043;-77
2023/08/24 09:36:32;;;;;;;16.20;13.00;;;;;;;27.18;38.84;94015.25;5064912;28;20214;-77
2023/08/24 09:38:59;;;;;;;17.13;14.00;;;;;;;27.32;37.94;94012.31;5069227;28;20129;-79
2023/08/24 09:41:47;;;;;;;18.83;15.65;;;;;;;27.19;38.17;93986.78;5068765;28;20023;-77
2023/08/24 09:44:12;;;;;;;16.85;15.07;;;;;;;27.37;38.05;94009.09;5066567;28;20036;-78
2023/08/24 09:46:39;;;;;;;15.77;14.15;;;;;;;27.45;38.00;94014.44;5067901;28;20468;-78
2023/08/24 09:49:06;;;;;;;14.48;13.18;;;;;;;27.42;37.35;93994.97;5065457;28;20435;-77
2023/08/24 09:51:33;;;;;;;20.55;13.50;;;;;;;27.59;37.80;93992.38;5068428;28;20031;-76
2023/08/24 09:54:06;;;;;;;15.80;12.57;;;;;;;27.58;37.30;94002.53;5064359;28;20055;-77
2023/08/24 09:56:34;;;;;;;13.98;11.55;;;;;;;27.56;36.42;93998.66;5067224;28;20069;-77
2023/08/24 09:59:02;;;;;;;13.52;12.23;;;;;;;27.62;36.81;93997.03;5065426;28;20036;-78
2023/08/24 10:01:29;;;;;;;15.40;13.82;;;;;;;27.61;37.45;93984.56;5066941;28;21028;-77
2023/08/24 10:03:59;;;;;;;15.35;11.70;;;;;;;27.64;37.20;93995.41;5068208;28;20605;-79
2023/08/24 10:06:27;;;;;;;14.85;12.88;;;;;;;27.74;36.73;93988.22;5082315;27;20043;-79
2023/08/24 10:08:58;;;;;;;16.05;12.77;;;;;;;27.75;36.65;93989.75;5069611;28;20106;-79
2023/08/24 10:11:28;;;;;;;15.00;13.43;;;;;;;27.74;35.94;93969.84;5067101;28;20490;-79
2023/08/24 10:14:03;;;;;;;13.38;12.07;;;;;;;27.65;36.59;93980.56;5082901;27;20024;-79
2023/08/24 10:16:30;;;;;;;14.18;12.80;;;;;;;27.75;37.63;93978.81;5081343;27;20046;-79
2023/08/24 10:18:55;;;;;;;17.00;12.32;;;;;;;27.78;37.37;93965.09;5066621;28;20107;-77
2023/08/24 10:21:25;;;;;;;15.73;13.27;;;;;;;27.87;36.91;93975.47;5066024;28;20404;-77
2023/08/24 10:23:52;;;;;;;13.40;11.40;;;;;;;28.06;36.66;93977.44;5066283;28;20518;-79
2023/08/24 10:26:18;;;;;;;12.43;10.80;;;;;;;28.17;35.21;93967.09;5065164;28;20044;-78
2023/08/24 10:28:45;;;;;;;11.68;10.48;;;;;;;28.21;34.61;93973.25;5065202;28;20066;-79
2023/08/24 10:31:11;;;;;;;16.60;11.50;;;;;;;28.16;35.71;93975.69;5065248;28;20027;-79
2023/08/24 10:33:37;;;;;;;11.90;10.20;;;;;;;28.35;33.92;93961.25;5067723;28;20556;-78
2023/08/24 10:36:07;;;;;;;11.80;10.55;;;;;;;28.40;34.15;93949.06;5065714;28;20136;-79
2023/08/24 10:38:39;;;;;;;12.27;10.98;;;;;;;28.39;33.72;93955.72;5065634;28;20105;-78
2023/08/24 10:41:05;;;;;;;13.40;12.20;;;;;;;28.38;35.04;93963.13;5060861;28;20040;-77
2023/08/24 10:43:37;;;;;;;15.55;12.60;;;;;;;28.43;33.90;93964.59;5069234;28;20079;-79
2023/08/24 10:46:04;;;;;;;11.95;10.75;;;;;;;28.37;34.33;93964.34;5064611;28;20801;-78
2023/08/24 10:48:49;;;;;;;11.52;10.35;;;;;;;28.42;34.26;93963.06;5067490;28;20028;-79
2023/08/24 10:51:21;;;;;;;12.15;10.82;;;;;;;28.42;34.03;93957.59;5040975;28;20372;-77
2023/08/24 10:53:55;;;;;;;13.63;10.98;;;;;;;28.46;34.48;93955.53;5065911;28;20024;-79
2023/08/24 10:56:24;;;;;;;;;;;;;;;28.57;34.84;93961.56;5068489;28;20452;-78
2023/08/24 10:59:12;;;;;;;12.45;11.23;;;;;;;28.46;34.11;93939.91;5068842;28;21023;-79
2023/08/24 11:02:03;;;;;;;14.40;12.50;;;;;;;28.63;34.60;93946.19;5068667;28;20048;-77
2023/08/24 11:04:29;;;;;;;12.93;11.65;;;;;;;28.72;33.75;93940.91;5067773;28;20498;-79
2023/08/24 11:06:59;;;;;;;13.45;11.50;;;;;;;28.77;33.82;93954.09;5067882;28;20370;-79
2023/08/24 11:09:25;;;;;;;19.38;12.70;;;;;;;28.58;36.52;93941.22;5080608;27;20040;-78
2023/08/24 11:12:05;;;;;;;19.63;12.18;;;;;;;28.50;37.41;93943.31;5069211;28;20032;-80
2023/08/24 11:14:30;;;;;;;15.45;13.05;;;;;;;28.22;38.20;93941.97;5068237;28;20600;-79
2023/08/24 11:17:17;;;;;;;24.65;13.32;;;;;;;28.41;37.92;93956.03;5068746;28;20608;-79